Weather at Dryden Regional Airport

Public forecast

Using degrees Celsius for public forecast. Weather courtesy of forecast.io.

Current aviation weather report (METAR) for Dryden Regional Airport

2024/06/22 08:00 (retrieved 1 hour ago)

CYHD 220800Z AUTO 00000KT 9SM OVC130 18/11 A3006 RMK SLP182 DENSITY ALT 1900FT

Aviation forecast (TAF) for Dryden Regional Airport

2024/06/22 08:42 (retrieved 23 minutes ago)

TAF CYHD 220740Z 2208/2220 VRB03KT P6SM SCT140 BKN170 BECMG 2212/2214 10005KT FM221800 10008KT P6SM SCT060 RMK FCST BASED ON AUTO OBS NXT FCST BY 221400Z